sensor_id;sensor_type;location;lat;lon;timestamp;pressure;altitude;pressure_sealevel;temperature;humidity
41573;BME280;27286;47.870;19.006;2023-03-12T00:00:43;98689.44;;;-0.61;66.09
41573;BME280;27286;47.870;19.006;2023-03-12T00:03:09;98671.50;;;-0.56;65.84
41573;BME280;27286;47.870;19.006;2023-03-12T00:05:39;98693.75;;;-0.67;63.92
41573;BME280;27286;47.870;19.006;2023-03-12T00:08:05;98700.66;;;-0.80;64.55
41573;BME280;27286;47.870;19.006;2023-03-12T00:10:31;98694.44;;;-0.51;63.29
41573;BME280;27286;47.870;19.006;2023-03-12T00:12:56;98680.75;;;-0.41;62.88
41573;BME280;27286;47.870;19.006;2023-03-12T00:15:22;98703.03;;;-0.55;62.85
41573;BME280;27286;47.870;19.006;2023-03-12T00:17:48;98710.03;;;-0.77;64.28
41573;BME280;27286;47.870;19.006;2023-03-12T00:20:14;98709.34;;;-0.99;65.27
41573;BME280;27286;47.870;19.006;2023-03-12T00:22:40;98711.03;;;-1.04;64.83
41573;BME280;27286;47.870;19.006;2023-03-12T00:25:09;98717.06;;;-1.10;65.15
41573;BME280;27286;47.870;19.006;2023-03-12T00:27:36;98705.94;;;-1.06;65.68
41573;BME280;27286;47.870;19.006;2023-03-12T00:30:03;98705.16;;;-1.12;65.61
41573;BME280;27286;47.870;19.006;2023-03-12T00:32:31;98694.97;;;-1.15;65.95
41573;BME280;27286;47.870;19.006;2023-03-12T00:34:57;98705.09;;;-1.05;65.10
41573;BME280;27286;47.870;19.006;2023-03-12T00:37:23;98699.22;;;-1.14;65.79
41573;BME280;27286;47.870;19.006;2023-03-12T00:39:48;98699.16;;;-1.08;65.90
41573;BME280;27286;47.870;19.006;2023-03-12T00:42:14;98715.28;;;-1.03;65.71
41573;BME280;27286;47.870;19.006;2023-03-12T00:44:39;98701.72;;;-1.08;65.34
41573;BME280;27286;47.870;19.006;2023-03-12T00:47:05;98705.16;;;-1.12;65.67
41573;BME280;27286;47.870;19.006;2023-03-12T00:49:31;98712.84;;;-1.22;66.46
41573;BME280;27286;47.870;19.006;2023-03-12T00:51:56;98713.75;;;-1.27;67.05
41573;BME280;27286;47.870;19.006;2023-03-12T00:54:22;98704.44;;;-1.37;66.98
41573;BME280;27286;47.870;19.006;2023-03-12T00:56:49;98713.75;;;-1.30;67.02
41573;BME280;27286;47.870;19.006;2023-03-12T00:59:15;98713.69;;;-1.19;67.44
41573;BME280;27286;47.870;19.006;2023-03-12T01:01:41;98720.34;;;-0.93;64.66
41573;BME280;27286;47.870;19.006;2023-03-12T01:04:07;98726.31;;;-0.94;64.51
41573;BME280;27286;47.870;19.006;2023-03-12T01:06:33;98734.06;;;-1.06;64.45
41573;BME280;27286;47.870;19.006;2023-03-12T01:09:03;98727.31;;;-1.14;64.71
41573;BME280;27286;47.870;19.006;2023-03-12T01:11:29;98732.44;;;-1.17;64.58
41573;BME280;27286;47.870;19.006;2023-03-12T01:13:57;98723.72;;;-0.89;61.46
41573;BME280;27286;47.870;19.006;2023-03-12T01:16:22;98727.78;;;-0.61;60.37
41573;BME280;27286;47.870;19.006;2023-03-12T01:18:53;98727.03;;;-0.75;60.90
41573;BME280;27286;47.870;19.006;2023-03-12T01:21:18;98739.13;;;-0.98;62.25
41573;BME280;27286;47.870;19.006;2023-03-12T01:23:44;98742.63;;;-1.14;62.81
41573;BME280;27286;47.870;19.006;2023-03-12T01:26:09;98733.34;;;-1.31;63.86
41573;BME280;27286;47.870;19.006;2023-03-12T01:28:35;98741.03;;;-1.38;63.07
41573;BME280;27286;47.870;19.006;2023-03-12T01:31:12;98744.50;;;-1.55;63.90
41573;BME280;27286;47.870;19.006;2023-03-12T01:33:38;98751.34;;;-1.60;63.57
41573;BME280;27286;47.870;19.006;2023-03-12T01:36:05;98755.59;;;-1.63;63.32
41573;BME280;27286;47.870;19.006;2023-03-12T01:38:39;98754.75;;;-1.64;62.63
41573;BME280;27286;47.870;19.006;2023-03-12T01:41:04;98756.38;;;-1.43;62.32
41573;BME280;27286;47.870;19.006;2023-03-12T01:43:33;98769.09;;;-1.29;61.64
41573;BME280;27286;47.870;19.006;2023-03-12T01:48:46;98769.16;;;-1.49;63.08
41573;BME280;27286;47.870;19.006;2023-03-12T01:51:14;98776.91;;;-1.67;63.79
41573;BME280;27286;47.870;19.006;2023-03-12T01:53:42;98782.88;;;-1.82;63.92
41573;BME280;27286;47.870;19.006;2023-03-12T01:56:10;98782.84;;;-1.77;64.72
41573;BME280;27286;47.870;19.006;2023-03-12T01:58:39;98787.09;;;-1.72;65.31
41573;BME280;27286;47.870;19.006;2023-03-12T02:01:07;98785.41;;;-1.77;65.37
41573;BME280;27286;47.870;19.006;2023-03-12T02:03:34;98787.91;;;-1.68;66.67
41573;BME280;27286;47.870;19.006;2023-03-12T02:06:10;98796.47;;;-1.75;67.95
41573;BME280;27286;47.870;19.006;2023-03-12T02:08:41;98797.38;;;-1.99;68.32
41573;BME280;27286;47.870;19.006;2023-03-12T02:11:07;98802.47;;;-2.08;69.50
41573;BME280;27286;47.870;19.006;2023-03-12T02:13:33;98805.00;;;-2.07;69.50
41573;BME280;27286;47.870;19.006;2023-03-12T02:15:58;98802.44;;;-2.04;69.22
41573;BME280;27286;47.870;19.006;2023-03-12T02:18:24;98797.34;;;-2.07;69.19
41573;BME280;27286;47.870;19.006;2023-03-12T02:26:16;98810.13;;;-2.10;70.76
41573;BME280;27286;47.870;19.006;2023-03-12T02:28:43;98809.25;;;-2.07;71.07
41573;BME280;27286;47.870;19.006;2023-03-12T02:31:13;98802.47;;;-2.18;71.38
41573;BME280;27286;47.870;19.006;2023-03-12T02:33:40;98816.91;;;-2.26;71.71
41573;BME280;27286;47.870;19.006;2023-03-12T02:36:05;98820.31;;;-2.31;73.70
41573;BME280;27286;47.870;19.006;2023-03-12T02:41:09;98822.00;;;-2.46;73.66
41573;BME280;27286;47.870;19.006;2023-03-12T02:43:35;98828.78;;;-2.55;73.62
41573;BME280;27286;47.870;19.006;2023-03-12T02:46:01;98834.75;;;-2.47;74.15
41573;BME280;27286;47.870;19.006;2023-03-12T02:48:27;98832.22;;;-2.52;73.71
41573;BME280;27286;47.870;19.006;2023-03-12T02:50:52;98841.53;;;-2.55;73.69
41573;BME280;27286;47.870;19.006;2023-03-12T02:53:18;98838.97;;;-2.60;74.32
41573;BME280;27286;47.870;19.006;2023-03-12T02:55:43;98837.28;;;-2.64;74.85
41573;BME280;27286;47.870;19.006;2023-03-12T02:58:09;98840.69;;;-2.63;76.22
41573;BME280;27286;47.870;19.006;2023-03-12T03:00:34;98848.31;;;-2.56;77.04
41573;BME280;27286;47.870;19.006;2023-03-12T03:03:01;98845.78;;;-2.57;76.42
41573;BME280;27286;47.870;19.006;2023-03-12T03:05:26;98846.63;;;-2.63;76.91
41573;BME280;27286;47.870;19.006;2023-03-12T03:07:51;98854.25;;;-2.66;76.84
41573;BME280;27286;47.870;19.006;2023-03-12T03:10:17;98862.72;;;-2.73;77.05
41573;BME280;27286;47.870;19.006;2023-03-12T03:12:43;98861.84;;;-2.84;77.55
41573;BME280;27286;47.870;19.006;2023-03-12T03:15:09;98856.75;;;-2.83;77.65
41573;BME280;27286;47.870;19.006;2023-03-12T03:17:35;98867.81;;;-2.81;77.96
41573;BME280;27286;47.870;19.006;2023-03-12T03:20:01;98868.66;;;-2.85;77.57
41573;BME280;27286;47.870;19.006;2023-03-12T03:22:26;98877.09;;;-2.95;77.93
41573;BME280;27286;47.870;19.006;2023-03-12T03:24:52;98861.81;;;-2.86;78.38
41573;BME280;27286;47.870;19.006;2023-03-12T03:27:18;98865.28;;;-2.70;77.82
41573;BME280;27286;47.870;19.006;2023-03-12T03:29:45;98859.31;;;-2.75;78.24
41573;BME280;27286;47.870;19.006;2023-03-12T03:32:10;98867.81;;;-2.73;78.75
41573;BME280;27286;47.870;19.006;2023-03-12T03:34:36;98868.69;;;-2.65;78.25
41573;BME280;27286;47.870;19.006;2023-03-12T03:37:03;98875.47;;;-2.76;78.40
41573;BME280;27286;47.870;19.006;2023-03-12T03:39:28;98883.88;;;-2.91;79.94
41573;BME280;27286;47.870;19.006;2023-03-12T03:41:54;98891.47;;;-3.05;80.24
41573;BME280;27286;47.870;19.006;2023-03-12T03:44:20;98899.09;;;-3.14;80.56
41573;BME280;27286;47.870;19.006;2023-03-12T03:46:47;98882.13;;;-3.04;82.14
41573;BME280;27286;47.870;19.006;2023-03-12T03:49:13;98881.34;;;-2.89;82.42
41573;BME280;27286;47.870;19.006;2023-03-12T03:51:39;98892.38;;;-2.93;82.05
41573;BME280;27286;47.870;19.006;2023-03-12T03:54:07;98900.84;;;-2.97;82.58
41573;BME280;27286;47.870;19.006;2023-03-12T03:56:32;98903.41;;;-3.00;83.03
41573;BME280;27286;47.870;19.006;2023-03-12T03:58:58;98911.88;;;-2.98;83.11
41573;BME280;27286;47.870;19.006;2023-03-12T04:01:26;98922.09;;;-2.94;82.70
41573;BME280;27286;47.870;19.006;2023-03-12T04:03:52;98927.19;;;-2.92;82.49
41573;BME280;27286;47.870;19.006;2023-03-12T04:06:17;98937.38;;;-2.89;82.17
41573;BME280;27286;47.870;19.006;2023-03-12T04:08:43;98940.84;;;-2.77;82.62
41573;BME280;27286;47.870;19.006;2023-03-12T04:11:28;98948.50;;;-2.70;82.67
41573;BME280;27286;47.870;19.006;2023-03-12T04:13:53;98938.38;;;-2.57;82.97
41573;BME280;27286;47.870;19.006;2023-03-12T04:16:19;98937.56;;;-2.45;82.90
41573;BME280;27286;47.870;19.006;2023-03-12T04:18:44;98948.53;;;-2.61;82.59
41573;BME280;27286;47.870;19.006;2023-03-12T04:21:11;98936.59;;;-2.72;83.50
41573;BME280;27286;47.870;19.006;2023-03-12T04:23:38;98937.44;;;-2.73;83.10
41573;BME280;27286;47.870;19.006;2023-03-12T04:26:04;98942.56;;;-2.69;84.50
41573;BME280;27286;47.870;19.006;2023-03-12T04:28:30;98940.91;;;-2.67;84.18
41573;BME280;27286;47.870;19.006;2023-03-12T04:30:59;98939.19;;;-2.61;84.63
41573;BME280;27286;47.870;19.006;2023-03-12T04:33:29;98936.69;;;-2.52;84.76
41573;BME280;27286;47.870;19.006;2023-03-12T04:35:57;98937.56;;;-2.50;84.72
41573;BME280;27286;47.870;19.006;2023-03-12T04:38:24;98952.81;;;-2.59;84.27
41573;BME280;27286;47.870;19.006;2023-03-12T04:41:11;98956.19;;;-2.66;84.99
41573;BME280;27286;47.870;19.006;2023-03-12T04:43:37;98951.88;;;-2.76;85.80
41573;BME280;27286;47.870;19.006;2023-03-12T04:46:03;98957.06;;;-2.56;85.95
41573;BME280;27286;47.870;19.006;2023-03-12T04:48:29;98962.19;;;-2.52;85.30
41573;BME280;27286;47.870;19.006;2023-03-12T04:50:55;98955.34;;;-2.56;85.16
41573;BME280;27286;47.870;19.006;2023-03-12T04:53:20;98961.34;;;-2.42;85.53
41573;BME280;27286;47.870;19.006;2023-03-12T04:55:46;98961.34;;;-2.46;84.57
41573;BME280;27286;47.870;19.006;2023-03-12T04:58:13;98966.44;;;-2.51;84.09
41573;BME280;27286;47.870;19.006;2023-03-12T05:00:39;98957.06;;;-2.55;84.33
41573;BME280;27286;47.870;19.006;2023-03-12T05:03:06;98969.78;;;-2.55;84.92
41573;BME280;27286;47.870;19.006;2023-03-12T05:05:32;98978.28;;;-2.56;85.63
41573;BME280;27286;47.870;19.006;2023-03-12T05:07:57;98974.03;;;-2.61;85.60
41573;BME280;27286;47.870;19.006;2023-03-12T05:10:23;98976.56;;;-2.64;86.56
41573;BME280;27286;47.870;19.006;2023-03-12T05:12:49;98975.78;;;-2.51;87.00
41573;BME280;27286;47.870;19.006;2023-03-12T05:15:14;98984.31;;;-2.35;86.91
41573;BME280;27286;47.870;19.006;2023-03-12T05:17:42;98991.94;;;-2.35;86.68
41573;BME280;27286;47.870;19.006;2023-03-12T05:20:09;98991.09;;;-2.37;87.68
41573;BME280;27286;47.870;19.006;2023-03-12T05:22:34;98983.47;;;-2.34;87.53
41573;BME280;27286;47.870;19.006;2023-03-12T05:25:01;98987.69;;;-2.39;87.81
41573;BME280;27286;47.870;19.006;2023-03-12T05:27:26;98991.09;;;-2.36;88.21
41573;BME280;27286;47.870;19.006;2023-03-12T05:29:52;99002.19;;;-2.26;88.32
41573;BME280;27286;47.870;19.006;2023-03-12T05:32:17;99007.28;;;-2.19;87.74
41573;BME280;27286;47.870;19.006;2023-03-12T05:34:43;99009.00;;;-2.19;87.59
41573;BME280;27286;47.870;19.006;2023-03-12T05:37:08;99015.84;;;-2.17;87.75
41573;BME280;27286;47.870;19.006;2023-03-12T05:39:34;99015.84;;;-2.10;87.81
41573;BME280;27286;47.870;19.006;2023-03-12T05:41:59;99030.28;;;-2.13;87.58
41573;BME280;27286;47.870;19.006;2023-03-12T05:44:25;99029.41;;;-2.19;87.85
41573;BME280;27286;47.870;19.006;2023-03-12T05:46:51;99039.59;;;-2.19;88.09
41573;BME280;27286;47.870;19.006;2023-03-12T05:49:18;99038.78;;;-2.15;87.82
41573;BME280;27286;47.870;19.006;2023-03-12T05:51:45;99052.41;;;-2.07;88.12
41573;BME280;27286;47.870;19.006;2023-03-12T05:54:10;99055.84;;;-1.97;87.50
41573;BME280;27286;47.870;19.006;2023-03-12T05:56:36;99068.59;;;-1.93;87.12
41573;BME280;27286;47.870;19.006;2023-03-12T05:59:02;99078.00;;;-1.79;86.03
41573;BME280;27286;47.870;19.006;2023-03-12T06:01:29;99078.84;;;-1.73;85.31
41573;BME280;27286;47.870;19.006;2023-03-12T06:03:55;99080.59;;;-1.61;84.93
41573;BME280;27286;47.870;19.006;2023-03-12T06:06:21;99093.34;;;-1.55;84.42
41573;BME280;27286;47.870;19.006;2023-03-12T06:08:47;99094.19;;;-1.53;84.32
41573;BME280;27286;47.870;19.006;2023-03-12T06:11:14;99100.19;;;-1.45;83.59
41573;BME280;27286;47.870;19.006;2023-03-12T06:13:39;99102.75;;;-1.39;83.06
41573;BME280;27286;47.870;19.006;2023-03-12T06:16:10;99105.31;;;-1.33;82.84
41573;BME280;27286;47.870;19.006;2023-03-12T06:18:37;99116.38;;;-1.29;81.92
41573;BME280;27286;47.870;19.006;2023-03-12T06:21:17;99116.38;;;-1.26;81.64
41573;BME280;27286;47.870;19.006;2023-03-12T06:23:44;99122.34;;;-1.19;81.23
41573;BME280;27286;47.870;19.006;2023-03-12T06:26:10;99127.44;;;-1.19;81.40
41573;BME280;27286;47.870;19.006;2023-03-12T06:28:36;99134.28;;;-1.15;81.62
41573;BME280;27286;47.870;19.006;2023-03-12T06:31:03;99131.72;;;-1.12;81.10
41573;BME280;27286;47.870;19.006;2023-03-12T06:33:29;99129.16;;;-1.06;80.52
41573;BME280;27286;47.870;19.006;2023-03-12T06:35:57;99138.53;;;-1.04;80.70
41573;BME280;27286;47.870;19.006;2023-03-12T06:38:23;99145.34;;;-0.97;80.17
41573;BME280;27286;47.870;19.006;2023-03-12T06:40:59;99142.81;;;-0.83;79.83
41573;BME280;27286;47.870;19.006;2023-03-12T06:43:26;99145.34;;;-0.71;79.52
41573;BME280;27286;47.870;19.006;2023-03-12T06:45:54;99147.88;;;-0.54;79.33
41573;BME280;27286;47.870;19.006;2023-03-12T06:48:20;99139.34;;;-0.45;78.55
41573;BME280;27286;47.870;19.006;2023-03-12T06:50:45;99141.84;;;-0.22;77.73
41573;BME280;27286;47.870;19.006;2023-03-12T06:53:11;99141.78;;;-0.03;76.28
41573;BME280;27286;47.870;19.006;2023-03-12T06:55:36;99139.19;;;0.11;75.56
41573;BME280;27286;47.870;19.006;2023-03-12T06:58:02;99143.38;;;0.29;74.66
41573;BME280;27286;47.870;19.006;2023-03-12T07:00:29;99144.97;;;0.50;73.44
41573;BME280;27286;47.870;19.006;2023-03-12T07:02:54;99146.59;;;0.66;72.57
41573;BME280;27286;47.870;19.006;2023-03-12T07:05:20;99153.31;;;0.81;71.53
41573;BME280;27286;47.870;19.006;2023-03-12T07:07:45;99166.03;;;0.96;71.20
41573;BME280;27286;47.870;19.006;2023-03-12T07:10:11;99166.75;;;1.18;70.26
41573;BME280;27286;47.870;19.006;2023-03-12T07:12:37;99171.63;;;1.45;70.01
41573;BME280;27286;47.870;19.006;2023-03-12T07:15:02;99179.06;;;1.74;68.66
41573;BME280;27286;47.870;19.006;2023-03-12T07:17:28;99183.94;;;2.02;66.75
41573;BME280;27286;47.870;19.006;2023-03-12T07:19:53;99187.88;;;2.30;65.69
41573;BME280;27286;47.870;19.006;2023-03-12T07:22:19;99178.69;;;2.77;62.11
41573;BME280;27286;47.870;19.006;2023-03-12T07:24:44;99172.59;;;5.12;54.30
41573;BME280;27286;47.870;19.006;2023-03-12T07:27:09;99161.44;;;7.54;46.78
41573;BME280;27286;47.870;19.006;2023-03-12T07:29:35;99160.50;;;8.78;43.70
41573;BME280;27286;47.870;19.006;2023-03-12T07:32:00;99162.06;;;9.48;40.27
41573;BME280;27286;47.870;19.006;2023-03-12T07:34:26;99161.81;;;10.54;38.46
41573;BME280;27286;47.870;19.006;2023-03-12T07:36:51;99155.78;;;11.27;36.72
41573;BME280;27286;47.870;19.006;2023-03-12T07:39:17;99154.63;;;11.50;35.61
41573;BME280;27286;47.870;19.006;2023-03-12T07:41:43;99155.94;;;11.59;35.11
41573;BME280;27286;47.870;19.006;2023-03-12T07:44:09;99157.84;;;12.07;34.41
41573;BME280;27286;47.870;19.006;2023-03-12T07:46:34;99156.50;;;12.33;33.06
41573;BME280;27286;47.870;19.006;2023-03-12T07:49:00;99158.75;;;12.88;32.55
41573;BME280;27286;47.870;19.006;2023-03-12T07:51:26;99161.63;;;12.68;32.22
41573;BME280;27286;47.870;19.006;2023-03-12T07:53:51;99166.66;;;12.71;31.82
41573;BME280;27286;47.870;19.006;2023-03-12T07:56:17;99166.69;;;13.02;31.98
41573;BME280;27286;47.870;19.006;2023-03-12T07:58:42;99167.88;;;12.97;31.20
41573;BME280;27286;47.870;19.006;2023-03-12T08:01:08;99169.69;;;12.47;32.02
41573;BME280;27286;47.870;19.006;2023-03-12T08:03:33;99161.28;;;12.74;31.66
41573;BME280;27286;47.870;19.006;2023-03-12T08:06:00;99167.94;;;13.27;30.75
41573;BME280;27286;47.870;19.006;2023-03-12T08:08:27;99174.19;;;13.70;30.20
41573;BME280;27286;47.870;19.006;2023-03-12T08:10:53;99171.16;;;13.77;30.02
41573;BME280;27286;47.870;19.006;2023-03-12T08:13:19;99171.34;;;13.89;30.59
41573;BME280;27286;47.870;19.006;2023-03-12T08:15:44;99167.97;;;13.57;29.82
41573;BME280;27286;47.870;19.006;2023-03-12T08:18:10;99178.56;;;13.69;29.13
41573;BME280;27286;47.870;19.006;2023-03-12T08:20:35;99177.63;;;15.27;28.11
41573;BME280;27286;47.870;19.006;2023-03-12T08:23:01;99171.41;;;15.69;27.19
41573;BME280;27286;47.870;19.006;2023-03-12T08:25:27;99172.78;;;15.75;25.81
41573;BME280;27286;47.870;19.006;2023-03-12T08:27:53;99171.63;;;15.66;26.92
41573;BME280;27286;47.870;19.006;2023-03-12T08:30:18;99177.53;;;15.82;26.64
41573;BME280;27286;47.870;19.006;2023-03-12T08:32:44;99180.25;;;15.54;26.31
41573;BME280;27286;47.870;19.006;2023-03-12T08:35:09;99186.06;;;16.49;25.73
41573;BME280;27286;47.870;19.006;2023-03-12T08:37:35;99177.22;;;16.12;25.34
41573;BME280;27286;47.870;19.006;2023-03-12T08:40:01;99186.06;;;16.37;24.97
41573;BME280;27286;47.870;19.006;2023-03-12T08:42:29;99188.41;;;17.03;24.41
41573;BME280;27286;47.870;19.006;2023-03-12T08:44:55;99192.78;;;16.41;24.12
41573;BME280;27286;47.870;19.006;2023-03-12T08:47:20;99187.59;;;16.90;24.18
41573;BME280;27286;47.870;19.006;2023-03-12T08:49:45;99183.41;;;17.24;23.22
41573;BME280;27286;47.870;19.006;2023-03-12T08:52:11;99190.16;;;16.53;25.17
41573;BME280;27286;47.870;19.006;2023-03-12T08:54:36;99184.66;;;17.90;24.06
41573;BME280;27286;47.870;19.006;2023-03-12T08:57:02;99186.00;;;17.96;23.40
41573;BME280;27286;47.870;19.006;2023-03-12T08:59:27;99185.13;;;17.84;23.35
41573;BME280;27286;47.870;19.006;2023-03-12T09:01:53;99190.53;;;17.83;22.85
41573;BME280;27286;47.870;19.006;2023-03-12T09:04:19;99188.72;;;19.51;21.39
41573;BME280;27286;47.870;19.006;2023-03-12T09:06:44;99188.00;;;19.60;20.97
41573;BME280;27286;47.870;19.006;2023-03-12T09:09:10;99183.66;;;19.91;20.63
41573;BME280;27286;47.870;19.006;2023-03-12T09:11:36;99182.06;;;20.30;19.20
41573;BME280;27286;47.870;19.006;2023-03-12T09:14:04;99184.50;;;20.64;20.32
41573;BME280;27286;47.870;19.006;2023-03-12T09:16:29;99183.38;;;19.94;20.19
41573;BME280;27286;47.870;19.006;2023-03-12T09:18:55;99183.16;;;19.33;20.23
41573;BME280;27286;47.870;19.006;2023-03-12T09:21:21;99185.84;;;20.07;20.98
41573;BME280;27286;47.870;19.006;2023-03-12T09:23:46;99187.72;;;20.16;19.66
41573;BME280;27286;47.870;19.006;2023-03-12T09:26:12;99178.44;;;20.22;19.04
41573;BME280;27286;47.870;19.006;2023-03-12T09:28:38;99172.16;;;20.43;19.17
41573;BME280;27286;47.870;19.006;2023-03-12T09:31:04;99185.34;;;19.17;19.82
41573;BME280;27286;47.870;19.006;2023-03-12T09:33:31;99182.75;;;19.49;20.00
41573;BME280;27286;47.870;19.006;2023-03-12T09:35:59;99188.81;;;19.61;19.37
41573;BME280;27286;47.870;19.006;2023-03-12T09:38:25;99185.97;;;19.85;18.60
41573;BME280;27286;47.870;19.006;2023-03-12T09:40:51;99192.00;;;20.59;18.31
41573;BME280;27286;47.870;19.006;2023-03-12T09:43:21;99184.28;;;20.46;18.01
41573;BME280;27286;47.870;19.006;2023-03-12T09:45:50;99187.31;;;20.21;19.63
41573;BME280;27286;47.870;19.006;2023-03-12T09:48:30;99183.38;;;20.57;19.08
41573;BME280;27286;47.870;19.006;2023-03-12T09:51:01;99187.09;;;21.25;19.03
41573;BME280;27286;47.870;19.006;2023-03-12T09:53:43;99185.00;;;21.28;17.86
41573;BME280;27286;47.870;19.006;2023-03-12T09:56:15;99187.69;;;21.67;16.96
41573;BME280;27286;47.870;19.006;2023-03-12T09:58:42;99175.50;;;20.25;18.64
41573;BME280;27286;47.870;19.006;2023-03-12T10:14:46;99185.25;;;20.24;18.68
41573;BME280;27286;47.870;19.006;2023-03-12T10:20:07;99191.44;;;18.28;20.53
41573;BME280;27286;47.870;19.006;2023-03-12T10:27:34;99191.94;;;16.66;21.18
41573;BME280;27286;47.870;19.006;2023-03-12T10:30:03;99197.72;;;16.83;21.89
41573;BME280;27286;47.870;19.006;2023-03-12T10:32:41;99188.13;;;18.48;20.26
41573;BME280;27286;47.870;19.006;2023-03-12T10:35:27;99193.25;;;18.27;19.94
41573;BME280;27286;47.870;19.006;2023-03-12T10:37:58;99196.53;;;17.96;19.62
41573;BME280;27286;47.870;19.006;2023-03-12T10:40:35;99199.69;;;18.12;18.69
41573;BME280;27286;47.870;19.006;2023-03-12T10:43:02;99190.53;;;18.51;17.19
41573;BME280;27286;47.870;19.006;2023-03-12T10:48:19;99189.44;;;18.43;17.52
41573;BME280;27286;47.870;19.006;2023-03-12T10:51:06;99183.44;;;20.25;16.41
41573;BME280;27286;47.870;19.006;2023-03-12T10:53:37;99179.88;;;20.87;16.26
41573;BME280;27286;47.870;19.006;2023-03-12T10:58:51;99175.88;;;19.46;15.69
41573;BME280;27286;47.870;19.006;2023-03-12T11:03:43;99192.56;;;22.01;15.85
41573;BME280;27286;47.870;19.006;2023-03-12T11:06:22;99186.50;;;20.81;14.03
41573;BME280;27286;47.870;19.006;2023-03-12T11:09:06;99188.06;;;20.84;14.99
41573;BME280;27286;47.870;19.006;2023-03-12T11:11:39;99176.22;;;21.28;14.21
41573;BME280;27286;47.870;19.006;2023-03-12T11:14:17;99183.91;;;20.91;15.17
41573;BME280;27286;47.870;19.006;2023-03-12T11:16:43;99183.78;;;20.92;15.09
41573;BME280;27286;47.870;19.006;2023-03-12T11:19:12;99193.41;;;19.47;14.88
41573;BME280;27286;47.870;19.006;2023-03-12T11:21:38;99186.41;;;19.90;14.38
41573;BME280;27286;47.870;19.006;2023-03-12T11:24:11;99191.50;;;20.23;16.17
41573;BME280;27286;47.870;19.006;2023-03-12T11:27:16;99193.44;;;20.21;14.86
41573;BME280;27286;47.870;19.006;2023-03-12T11:29:48;99188.81;;;19.93;15.28
41573;BME280;27286;47.870;19.006;2023-03-12T11:32:17;99193.88;;;19.52;14.96
41573;BME280;27286;47.870;19.006;2023-03-12T11:34:44;99188.25;;;19.57;14.32
41573;BME280;27286;47.870;19.006;2023-03-12T11:48:36;99192.34;;;20.75;14.67
41573;BME280;27286;47.870;19.006;2023-03-12T11:51:31;99203.88;;;21.05;15.39
41573;BME280;27286;47.870;19.006;2023-03-12T11:54:01;99207.47;;;22.21;14.55
41573;BME280;27286;47.870;19.006;2023-03-12T11:56:35;99208.59;;;22.18;14.71
41573;BME280;27286;47.870;19.006;2023-03-12T12:10:01;99194.78;;;21.86;15.58
41573;BME280;27286;47.870;19.006;2023-03-12T12:15:33;99184.16;;;22.71;15.53
41573;BME280;27286;47.870;19.006;2023-03-12T12:26:48;99179.03;;;23.78;14.55
41573;BME280;27286;47.870;19.006;2023-03-12T12:30:24;99171.84;;;23.25;15.42
41573;BME280;27286;47.870;19.006;2023-03-12T12:32:23;99181.25;;;21.89;15.79
41573;BME280;27286;47.870;19.006;2023-03-12T12:35:02;99176.91;;;21.30;15.58
41573;BME280;27286;47.870;19.006;2023-03-12T12:37:55;99176.81;;;20.91;15.58
41573;BME280;27286;47.870;19.006;2023-03-12T12:40:37;99189.03;;;16.70;19.58
41573;BME280;27286;47.870;19.006;2023-03-12T12:45:51;99191.47;;;13.11;24.45
41573;BME280;27286;47.870;19.006;2023-03-12T12:48:34;99204.06;;;12.71;22.33
41573;BME280;27286;47.870;19.006;2023-03-12T12:51:03;99201.44;;;12.05;23.84
41573;BME280;27286;47.870;19.006;2023-03-12T12:53:59;99197.56;;;11.79;24.26
41573;BME280;27286;47.870;19.006;2023-03-12T12:59:17;99198.88;;;11.52;26.45
41573;BME280;27286;47.870;19.006;2023-03-12T13:01:49;99211.47;;;11.61;25.51
41573;BME280;27286;47.870;19.006;2023-03-12T13:04:34;99200.34;;;11.57;26.96
41573;BME280;27286;47.870;19.006;2023-03-12T13:09:39;99202.66;;;11.63;24.32
41573;BME280;27286;47.870;19.006;2023-03-12T13:12:52;99196.22;;;13.20;25.00
41573;BME280;27286;47.870;19.006;2023-03-12T13:14:54;99211.03;;;14.39;23.48
41573;BME280;27286;47.870;19.006;2023-03-12T13:17:26;99205.03;;;13.17;24.06
41573;BME280;27286;47.870;19.006;2023-03-12T13:19:58;99208.03;;;11.41;25.36
41573;BME280;27286;47.870;19.006;2023-03-12T13:30:52;99214.34;;;10.03;29.53
41573;BME280;27286;47.870;19.006;2023-03-12T13:33:19;99218.56;;;9.85;25.99
41573;BME280;27286;47.870;19.006;2023-03-12T13:41:39;99223.66;;;9.66;29.91
41573;BME280;27286;47.870;19.006;2023-03-12T13:44:38;99231.53;;;9.64;28.00
41573;BME280;27286;47.870;19.006;2023-03-12T13:47:31;99232.56;;;9.60;30.64
41573;BME280;27286;47.870;19.006;2023-03-12T13:50:11;99221.88;;;9.46;29.64
41573;BME280;27286;47.870;19.006;2023-03-12T13:57:46;99235.28;;;8.92;30.57
41573;BME280;27286;47.870;19.006;2023-03-12T14:02:59;99229.44;;;8.85;27.73
41573;BME280;27286;47.870;19.006;2023-03-12T14:05:27;99229.16;;;8.69;27.98
41573;BME280;27286;47.870;19.006;2023-03-12T14:16:47;99226.13;;;8.58;29.90
41573;BME280;27286;47.870;19.006;2023-03-12T14:19:21;99219.47;;;8.51;29.03
41573;BME280;27286;47.870;19.006;2023-03-12T14:21:49;99224.16;;;8.41;27.51
41573;BME280;27286;47.870;19.006;2023-03-12T14:24:33;99232.22;;;8.32;30.07
41573;BME280;27286;47.870;19.006;2023-03-12T14:27:00;99232.56;;;8.22;31.43
41573;BME280;27286;47.870;19.006;2023-03-12T14:29:44;99227.06;;;8.06;28.62
41573;BME280;27286;47.870;19.006;2023-03-12T14:32:16;99223.47;;;7.85;28.72
41573;BME280;27286;47.870;19.006;2023-03-12T14:35:26;99228.50;;;7.63;30.75
41573;BME280;27286;47.870;19.006;2023-03-12T14:38:06;99223.66;;;7.52;30.64
41573;BME280;27286;47.870;19.006;2023-03-12T14:43:27;99230.16;;;7.39;29.46
41573;BME280;27286;47.870;19.006;2023-03-12T14:45:55;99226.78;;;7.36;28.43
41573;BME280;27286;47.870;19.006;2023-03-12T14:48:34;99231.28;;;7.31;28.91
41573;BME280;27286;47.870;19.006;2023-03-12T14:51:02;99234.91;;;7.25;28.36
41573;BME280;27286;47.870;19.006;2023-03-12T14:53:31;99239.94;;;7.30;29.12